Chaumont, New York
Current Conditions -  °F | °C
As of 6:56 PM on Thursday 18 Dec 2014 (Local Time) from KART Reporting Station
Overcast Overcast  
Wind Chill: 23°   Ceiling: 3000
Heat Index: 31°   Visibility: 10mi
Dew Point: 22°   Wind: 8mph
Humidity: 69%   Direction: 310°NW
Pressure: 30.03"   Gusts: NA
Location:  44.07°N, 76.13°W
Report Text: KART 182356Z AUTO 31007KT 10SM BKN030 OVC036 M01/M06 A3003 RMK AO2 SLP173 T10061056 10000 21006 51008
Loading
Personal Weather Stations






























Interactive Weather Map New forecast layout! Learn more

10-Day Weather Forecast

Advertisements
Track Severe Weather on mobile